sensor_id;sensor_type;location;lat;lon;timestamp;pressure;altitude;pressure_sealevel;temperature;humidity
67517;BME280;68821;59.134;37.894;2023-07-13T00:00:36;98608.03;;;13.41;75.29
67517;BME280;68821;59.134;37.894;2023-07-13T00:03:03;98608.88;;;13.41;75.24
67517;BME280;68821;59.134;37.894;2023-07-13T00:05:30;98616.63;;;13.41;74.97
67517;BME280;68821;59.134;37.894;2023-07-13T00:07:57;98625.19;;;13.43;75.12
67517;BME280;68821;59.134;37.894;2023-07-13T00:10:24;98625.22;;;13.42;74.93
67517;BME280;68821;59.134;37.894;2023-07-13T00:12:50;98621.78;;;13.41;75.42
67517;BME280;68821;59.134;37.894;2023-07-13T00:15:25;98621.78;;;13.41;75.58
67517;BME280;68821;59.134;37.894;2023-07-13T00:17:53;98627.81;;;13.40;75.36
67517;BME280;68821;59.134;37.894;2023-07-13T00:20:22;98636.34;;;13.44;75.09
67517;BME280;68821;59.134;37.894;2023-07-13T00:22:49;98636.34;;;13.45;75.57
67517;BME280;68821;59.134;37.894;2023-07-13T00:25:15;98638.94;;;13.44;75.04
67517;BME280;68821;59.134;37.894;2023-07-13T00:27:43;98633.81;;;13.42;75.53
67517;BME280;68821;59.134;37.894;2023-07-13T00:30:10;98633.84;;;13.41;75.24
67517;BME280;68821;59.134;37.894;2023-07-13T00:32:37;98626.22;;;13.35;75.14
67517;BME280;68821;59.134;37.894;2023-07-13T00:35:04;98627.81;;;13.40;75.61
67517;BME280;68821;59.134;37.894;2023-07-13T00:37:31;98619.34;;;13.35;75.35
67517;BME280;68821;59.134;37.894;2023-07-13T00:39:57;98626.16;;;13.39;75.24
67517;BME280;68821;59.134;37.894;2023-07-13T00:42:23;98632.13;;;13.41;75.21
67517;BME280;68821;59.134;37.894;2023-07-13T00:46:02;98624.41;;;13.40;75.95
67517;BME280;68821;59.134;37.894;2023-07-13T00:47:53;98619.25;;;13.40;75.36
67517;BME280;68821;59.134;37.894;2023-07-13T00:50:21;98613.25;;;13.39;75.37
67517;BME280;68821;59.134;37.894;2023-07-13T00:52:49;98627.84;;;13.39;76.11
67517;BME280;68821;59.134;37.894;2023-07-13T00:55:17;98632.19;;;13.38;75.65
67517;BME280;68821;59.134;37.894;2023-07-13T00:57:44;98625.34;;;13.37;75.28
67517;BME280;68821;59.134;37.894;2023-07-13T01:00:11;98626.22;;;13.35;75.60
67517;BME280;68821;59.134;37.894;2023-07-13T01:02:40;98616.84;;;13.31;75.75
67517;BME280;68821;59.134;37.894;2023-07-13T01:05:17;98620.31;;;13.28;75.82
67517;BME280;68821;59.134;37.894;2023-07-13T01:07:46;98616.91;;;13.29;75.41
67517;BME280;68821;59.134;37.894;2023-07-13T01:10:14;98614.34;;;13.27;75.55
67517;BME280;68821;59.134;37.894;2023-07-13T01:12:40;98608.34;;;13.25;75.64
67517;BME280;68821;59.134;37.894;2023-07-13T01:15:42;98597.19;;;13.25;75.86
67517;BME280;68821;59.134;37.894;2023-07-13T01:18:26;98600.63;;;13.24;75.99
67517;BME280;68821;59.134;37.894;2023-07-13T01:21:00;98595.47;;;13.24;75.54
67517;BME280;68821;59.134;37.894;2023-07-13T01:23:27;98607.53;;;13.23;76.08
67517;BME280;68821;59.134;37.894;2023-07-13T01:25:56;98598.16;;;13.19;75.65
67517;BME280;68821;59.134;37.894;2023-07-13T01:28:24;98598.22;;;13.16;76.07
67517;BME280;68821;59.134;37.894;2023-07-13T01:30:54;98590.47;;;13.16;75.80
67517;BME280;68821;59.134;37.894;2023-07-13T01:33:21;98589.63;;;13.16;75.74
67517;BME280;68821;59.134;37.894;2023-07-13T01:35:48;98594.81;;;13.14;75.99
67517;BME280;68821;59.134;37.894;2023-07-13T01:38:17;98595.63;;;13.18;75.88
67517;BME280;68821;59.134;37.894;2023-07-13T01:40:44;98594.75;;;13.19;75.70
67517;BME280;68821;59.134;37.894;2023-07-13T01:43:11;98598.97;;;13.21;75.82
67517;BME280;68821;59.134;37.894;2023-07-13T01:45:37;98588.63;;;13.23;75.70
67517;BME280;68821;59.134;37.894;2023-07-13T01:48:04;98576.56;;;13.23;75.83
67517;BME280;68821;59.134;37.894;2023-07-13T01:50:33;98585.13;;;13.25;75.47
67517;BME280;68821;59.134;37.894;2023-07-13T01:52:59;98581.72;;;13.25;75.80
67517;BME280;68821;59.134;37.894;2023-07-13T01:55:26;98574.84;;;13.24;75.79
67517;BME280;68821;59.134;37.894;2023-07-13T01:57:52;98582.53;;;13.27;75.68
67517;BME280;68821;59.134;37.894;2023-07-13T02:00:19;98581.72;;;13.25;75.80
67517;BME280;68821;59.134;37.894;2023-07-13T02:02:45;98585.13;;;13.25;75.81
67517;BME280;68821;59.134;37.894;2023-07-13T02:05:12;98577.41;;;13.24;75.86
67517;BME280;68821;59.134;37.894;2023-07-13T02:07:39;98569.75;;;13.21;76.14
67517;BME280;68821;59.134;37.894;2023-07-13T02:10:07;98568.03;;;13.20;75.76
67517;BME280;68821;59.134;37.894;2023-07-13T02:12:34;98572.38;;;13.19;76.03
67517;BME280;68821;59.134;37.894;2023-07-13T02:15:00;98575.81;;;13.18;76.07
67517;BME280;68821;59.134;37.894;2023-07-13T02:17:27;98573.28;;;13.17;76.31
67517;BME280;68821;59.134;37.894;2023-07-13T02:19:53;98569.94;;;13.13;76.40
67517;BME280;68821;59.134;37.894;2023-07-13T02:22:20;98564.78;;;13.12;76.09
67517;BME280;68821;59.134;37.894;2023-07-13T02:24:48;98565.59;;;13.14;76.15
67517;BME280;68821;59.134;37.894;2023-07-13T02:27:14;98572.47;;;13.15;76.31
67517;BME280;68821;59.134;37.894;2023-07-13T02:29:40;98569.94;;;13.13;76.12
67517;BME280;68821;59.134;37.894;2023-07-13T02:32:07;98573.34;;;13.14;76.45
67517;BME280;68821;59.134;37.894;2023-07-13T02:34:34;98567.34;;;13.13;76.55
67517;BME280;68821;59.134;37.894;2023-07-13T02:37:00;98570.84;;;13.11;76.49
67517;BME280;68821;59.134;37.894;2023-07-13T02:39:27;98569.16;;;13.08;76.82
67517;BME280;68821;59.134;37.894;2023-07-13T02:41:54;98576.97;;;13.06;76.76
67517;BME280;68821;59.134;37.894;2023-07-13T02:44:20;98571.81;;;13.05;76.77
67517;BME280;68821;59.134;37.894;2023-07-13T02:46:47;98572.66;;;13.07;77.06
67517;BME280;68821;59.134;37.894;2023-07-13T02:49:13;98571.81;;;13.06;77.20
67517;BME280;68821;59.134;37.894;2023-07-13T02:51:39;98567.53;;;13.04;77.19
67517;BME280;68821;59.134;37.894;2023-07-13T02:54:05;98567.59;;;13.02;77.18
67517;BME280;68821;59.134;37.894;2023-07-13T02:56:34;98567.53;;;13.04;77.29
67517;BME280;68821;59.134;37.894;2023-07-13T02:59:00;98564.97;;;13.04;77.16
67517;BME280;68821;59.134;37.894;2023-07-13T03:01:27;98558.16;;;13.01;77.02
67517;BME280;68821;59.134;37.894;2023-07-13T03:03:53;98559.09;;;12.97;77.11
67517;BME280;68821;59.134;37.894;2023-07-13T03:06:20;98553.97;;;12.96;77.42
67517;BME280;68821;59.134;37.894;2023-07-13T03:08:47;98546.31;;;12.93;77.38
67517;BME280;68821;59.134;37.894;2023-07-13T03:11:18;98548.03;;;12.92;78.05
67517;BME280;68821;59.134;37.894;2023-07-13T03:13:44;98542.13;;;12.87;77.54
67517;BME280;68821;59.134;37.894;2023-07-13T03:16:11;98542.09;;;12.88;77.13
67517;BME280;68821;59.134;37.894;2023-07-13T03:18:38;98548.06;;;12.91;77.33
67517;BME280;68821;59.134;37.894;2023-07-13T03:21:05;98543.72;;;12.94;77.47
67517;BME280;68821;59.134;37.894;2023-07-13T03:23:32;98527.31;;;12.97;77.65
67517;BME280;68821;59.134;37.894;2023-07-13T03:26:13;98528.97;;;12.99;77.79
67517;BME280;68821;59.134;37.894;2023-07-13T03:28:40;98532.34;;;13.01;77.12
67517;BME280;68821;59.134;37.894;2023-07-13T03:31:13;98528.97;;;12.99;77.34
67517;BME280;68821;59.134;37.894;2023-07-13T03:33:40;98533.28;;;12.99;77.39
67517;BME280;68821;59.134;37.894;2023-07-13T03:36:09;98524.75;;;12.95;77.92
67517;BME280;68821;59.134;37.894;2023-07-13T03:38:35;98528.28;;;12.91;77.69
67517;BME280;68821;59.134;37.894;2023-07-13T03:41:02;98530.16;;;12.84;77.76
67517;BME280;68821;59.134;37.894;2023-07-13T03:43:28;98520.81;;;12.79;77.99
67517;BME280;68821;59.134;37.894;2023-07-13T03:45:55;98515.88;;;12.70;78.12
67517;BME280;68821;59.134;37.894;2023-07-13T03:48:21;98511.81;;;12.59;78.23
67517;BME280;68821;59.134;37.894;2023-07-13T03:50:48;98522.94;;;12.61;78.73
67517;BME280;68821;59.134;37.894;2023-07-13T03:53:15;98521.22;;;12.60;79.53
67517;BME280;68821;59.134;37.894;2023-07-13T03:55:41;98519.59;;;12.55;79.01
67517;BME280;68821;59.134;37.894;2023-07-13T03:58:30;98513.75;;;12.46;79.19
67517;BME280;68821;59.134;37.894;2023-07-13T04:00:57;98522.38;;;12.47;78.95
67517;BME280;68821;59.134;37.894;2023-07-13T04:03:24;98517.34;;;12.41;79.71
67517;BME280;68821;59.134;37.894;2023-07-13T04:05:51;98511.28;;;12.42;79.64
67517;BME280;68821;59.134;37.894;2023-07-13T04:08:17;98509.53;;;12.44;80.08
67517;BME280;68821;59.134;37.894;2023-07-13T04:10:44;98505.31;;;12.41;79.68
67517;BME280;68821;59.134;37.894;2023-07-13T04:13:10;98506.97;;;12.44;80.33
67517;BME280;68821;59.134;37.894;2023-07-13T04:15:38;98504.41;;;12.42;81.02
67517;BME280;68821;59.134;37.894;2023-07-13T04:18:04;98509.56;;;12.42;80.73
67517;BME280;68821;59.134;37.894;2023-07-13T04:20:31;98516.41;;;12.45;80.98
67517;BME280;68821;59.134;37.894;2023-07-13T04:22:58;98507.84;;;12.43;80.60
67517;BME280;68821;59.134;37.894;2023-07-13T04:25:24;98505.97;;;12.50;80.78
67517;BME280;68821;59.134;37.894;2023-07-13T04:27:52;98517.13;;;12.50;81.95
67517;BME280;68821;59.134;37.894;2023-07-13T04:30:19;98517.13;;;12.52;81.08
67517;BME280;68821;59.134;37.894;2023-07-13T04:32:45;98513.63;;;12.54;80.61
67517;BME280;68821;59.134;37.894;2023-07-13T04:35:12;98516.97;;;12.59;80.59
67517;BME280;68821;59.134;37.894;2023-07-13T04:37:40;98507.47;;;12.61;80.69
67517;BME280;68821;59.134;37.894;2023-07-13T04:40:07;98516.88;;;12.62;80.69
67517;BME280;68821;59.134;37.894;2023-07-13T04:42:37;98516.00;;;12.63;80.43
67517;BME280;68821;59.134;37.894;2023-07-13T04:45:05;98512.63;;;12.61;81.36
67517;BME280;68821;59.134;37.894;2023-07-13T04:47:32;98511.81;;;12.59;80.44
67517;BME280;68821;59.134;37.894;2023-07-13T04:49:58;98505.75;;;12.60;80.59
67517;BME280;68821;59.134;37.894;2023-07-13T04:52:25;98512.63;;;12.61;80.91
67517;BME280;68821;59.134;37.894;2023-07-13T04:54:51;98519.47;;;12.62;80.41
67517;BME280;68821;59.134;37.894;2023-07-13T04:57:17;98510.09;;;12.58;81.23
67517;BME280;68821;59.134;37.894;2023-07-13T04:59:43;98517.78;;;12.61;80.61
67517;BME280;68821;59.134;37.894;2023-07-13T05:02:10;98524.63;;;12.61;80.88
67517;BME280;68821;59.134;37.894;2023-07-13T05:04:36;98522.03;;;12.62;80.83
67517;BME280;68821;59.134;37.894;2023-07-13T05:07:03;98522.94;;;12.60;81.15
67517;BME280;68821;59.134;37.894;2023-07-13T05:09:29;98516.16;;;12.56;81.39
67517;BME280;68821;59.134;37.894;2023-07-13T05:11:55;98517.13;;;12.50;81.31
67517;BME280;68821;59.134;37.894;2023-07-13T05:14:21;98496.72;;;12.41;81.52
67517;BME280;68821;59.134;37.894;2023-07-13T05:16:48;98500.19;;;12.38;81.37
67517;BME280;68821;59.134;37.894;2023-07-13T05:19:14;98498.69;;;12.28;87.11
67517;BME280;68821;59.134;37.894;2023-07-13T05:21:40;98506.59;;;12.20;87.20
67517;BME280;68821;59.134;37.894;2023-07-13T05:24:07;98497.22;;;12.16;86.26
67517;BME280;68821;59.134;37.894;2023-07-13T05:26:33;98501.50;;;12.17;84.64
67517;BME280;68821;59.134;37.894;2023-07-13T05:28:59;98505.78;;;12.17;83.13
67517;BME280;68821;59.134;37.894;2023-07-13T05:31:25;98508.41;;;12.15;83.18
67517;BME280;68821;59.134;37.894;2023-07-13T05:33:52;98488.75;;;12.10;82.98
67517;BME280;68821;59.134;37.894;2023-07-13T05:36:18;98496.47;;;12.11;82.88
67517;BME280;68821;59.134;37.894;2023-07-13T05:38:44;98520.41;;;12.16;82.88
67517;BME280;68821;59.134;37.894;2023-07-13T05:41:11;98509.22;;;12.17;83.07
67517;BME280;68821;59.134;37.894;2023-07-13T05:43:37;98512.72;;;12.13;82.96
67517;BME280;68821;59.134;37.894;2023-07-13T05:46:03;98502.44;;;12.12;83.15
67517;BME280;68821;59.134;37.894;2023-07-13T05:48:29;98495.59;;;12.12;83.02
67517;BME280;68821;59.134;37.894;2023-07-13T05:50:56;98484.34;;;12.16;83.09
67517;BME280;68821;59.134;37.894;2023-07-13T05:53:22;98479.13;;;12.19;83.12
67517;BME280;68821;59.134;37.894;2023-07-13T05:55:48;98475.50;;;12.28;83.30
67517;BME280;68821;59.134;37.894;2023-07-13T05:58:19;98478.84;;;12.33;83.46
67517;BME280;68821;59.134;37.894;2023-07-13T06:00:47;98480.38;;;12.42;83.50
67517;BME280;68821;59.134;37.894;2023-07-13T06:03:16;98481.25;;;12.41;83.49
67517;BME280;68821;59.134;37.894;2023-07-13T06:05:42;98483.88;;;12.39;83.40
67517;BME280;68821;59.134;37.894;2023-07-13T06:08:08;98485.53;;;12.40;83.72
67517;BME280;68821;59.134;37.894;2023-07-13T06:10:36;98479.63;;;12.37;83.52
67517;BME280;68821;59.134;37.894;2023-07-13T06:13:02;98474.47;;;12.37;83.69
67517;BME280;68821;59.134;37.894;2023-07-13T06:15:29;98472.78;;;12.36;83.84
67517;BME280;68821;59.134;37.894;2023-07-13T06:17:55;98472.66;;;12.40;83.96
67517;BME280;68821;59.134;37.894;2023-07-13T06:20:21;98472.63;;;12.43;83.80
67517;BME280;68821;59.134;37.894;2023-07-13T06:22:47;98476.03;;;12.44;83.84
67517;BME280;68821;59.134;37.894;2023-07-13T06:25:14;98473.47;;;12.42;84.08
67517;BME280;68821;59.134;37.894;2023-07-13T06:27:40;98475.06;;;12.50;84.22
67517;BME280;68821;59.134;37.894;2023-07-13T06:30:07;98466.50;;;12.47;83.99
67517;BME280;68821;59.134;37.894;2023-07-13T06:32:33;98472.63;;;12.43;84.23
67517;BME280;68821;59.134;37.894;2023-07-13T06:34:59;98473.41;;;12.47;84.14
67517;BME280;68821;59.134;37.894;2023-07-13T06:37:26;98480.25;;;12.48;84.38
67517;BME280;68821;59.134;37.894;2023-07-13T06:39:52;98483.66;;;12.48;84.40
67517;BME280;68821;59.134;37.894;2023-07-13T06:42:18;98484.44;;;12.52;84.22
67517;BME280;68821;59.134;37.894;2023-07-13T06:44:45;98476.75;;;12.51;84.55
67517;BME280;68821;59.134;37.894;2023-07-13T06:47:11;98486.97;;;12.55;84.40
67517;BME280;68821;59.134;37.894;2023-07-13T06:49:37;98495.59;;;12.53;84.50
67517;BME280;68821;59.134;37.894;2023-07-13T06:52:04;98490.53;;;12.48;84.55
67517;BME280;68821;59.134;37.894;2023-07-13T06:54:30;98490.66;;;12.43;84.79
67517;BME280;68821;59.134;37.894;2023-07-13T06:56:56;98484.69;;;12.41;84.60
67517;BME280;68821;59.134;37.894;2023-07-13T06:59:23;98480.44;;;12.39;84.71
67517;BME280;68821;59.134;37.894;2023-07-13T07:01:49;98480.41;;;12.40;85.25
67517;BME280;68821;59.134;37.894;2023-07-13T07:04:15;98479.41;;;12.47;84.88
67517;BME280;68821;59.134;37.894;2023-07-13T07:06:44;98466.56;;;12.44;85.02
67517;BME280;68821;59.134;37.894;2023-07-13T07:09:11;98471.72;;;12.44;85.10
67517;BME280;68821;59.134;37.894;2023-07-13T07:11:37;98470.81;;;12.47;85.33
67517;BME280;68821;59.134;37.894;2023-07-13T07:14:04;98472.44;;;12.51;85.30
67517;BME280;68821;59.134;37.894;2023-07-13T07:16:30;98477.53;;;12.54;84.94
67517;BME280;68821;59.134;37.894;2023-07-13T07:18:56;98475.66;;;12.61;85.51
67517;BME280;68821;59.134;37.894;2023-07-13T07:21:23;98473.81;;;12.67;85.27
67517;BME280;68821;59.134;37.894;2023-07-13T07:23:49;98475.47;;;12.70;85.25
67517;BME280;68821;59.134;37.894;2023-07-13T07:26:15;98482.34;;;12.70;85.26
67517;BME280;68821;59.134;37.894;2023-07-13T07:28:41;98468.44;;;12.77;85.39
67517;BME280;68821;59.134;37.894;2023-07-13T07:31:08;98493.28;;;12.79;85.40
67517;BME280;68821;59.134;37.894;2023-07-13T07:33:34;98492.41;;;12.82;85.57
67517;BME280;68821;59.134;37.894;2023-07-13T07:36:01;98489.72;;;12.86;85.63
67517;BME280;68821;59.134;37.894;2023-07-13T07:38:29;98495.72;;;12.87;85.40
67517;BME280;68821;59.134;37.894;2023-07-13T07:40:55;98494.06;;;12.84;85.70
67517;BME280;68821;59.134;37.894;2023-07-13T07:43:23;98497.34;;;12.89;85.53
67517;BME280;68821;59.134;37.894;2023-07-13T07:45:49;98504.06;;;12.98;85.60
67517;BME280;68821;59.134;37.894;2023-07-13T07:48:15;98500.47;;;13.04;85.55
67517;BME280;68821;59.134;37.894;2023-07-13T07:50:42;98491.09;;;13.00;85.48
67517;BME280;68821;59.134;37.894;2023-07-13T07:53:08;98485.91;;;13.01;85.38
67517;BME280;68821;59.134;37.894;2023-07-13T07:55:36;98485.94;;;13.00;85.39
67517;BME280;68821;59.134;37.894;2023-07-13T07:58:03;98483.44;;;12.97;85.89
67517;BME280;68821;59.134;37.894;2023-07-13T08:00:29;98491.09;;;13.00;85.22
67517;BME280;68821;59.134;37.894;2023-07-13T08:02:58;98504.81;;;13.02;85.47
67517;BME280;68821;59.134;37.894;2023-07-13T08:05:25;98508.28;;;13.01;85.25
67517;BME280;68821;59.134;37.894;2023-07-13T08:07:52;98518.59;;;13.02;85.52
67517;BME280;68821;59.134;37.894;2023-07-13T08:10:18;98519.41;;;13.04;85.61
67517;BME280;68821;59.134;37.894;2023-07-13T08:12:44;98514.25;;;13.04;85.74
67517;BME280;68821;59.134;37.894;2023-07-13T08:15:13;98517.56;;;13.08;85.34
67517;BME280;68821;59.134;37.894;2023-07-13T08:17:40;98516.69;;;13.09;85.45
67517;BME280;68821;59.134;37.894;2023-07-13T08:20:07;98517.53;;;13.09;84.94
67517;BME280;68821;59.134;37.894;2023-07-13T08:22:35;98511.41;;;13.15;85.69
67517;BME280;68821;59.134;37.894;2023-07-13T08:25:01;98498.38;;;13.20;85.53
67517;BME280;68821;59.134;37.894;2023-07-13T08:27:28;98503.41;;;13.24;85.61
67517;BME280;68821;59.134;37.894;2023-07-13T08:29:55;98499.94;;;13.27;85.01
67517;BME280;68821;59.134;37.894;2023-07-13T08:32:22;98506.81;;;13.26;85.25
67517;BME280;68821;59.134;37.894;2023-07-13T08:34:49;98511.22;;;13.23;85.25
67517;BME280;68821;59.134;37.894;2023-07-13T08:37:16;98505.31;;;13.18;85.46
67517;BME280;68821;59.134;37.894;2023-07-13T08:39:42;98525.91;;;13.19;86.01
67517;BME280;68821;59.134;37.894;2023-07-13T08:42:22;98531.00;;;13.22;85.34
67517;BME280;68821;59.134;37.894;2023-07-13T08:45:04;98532.75;;;13.20;85.37
67517;BME280;68821;59.134;37.894;2023-07-13T08:47:37;98525.94;;;13.18;85.17
67517;BME280;68821;59.134;37.894;2023-07-13T08:50:05;98519.94;;;13.17;85.32
67517;BME280;68821;59.134;37.894;2023-07-13T08:52:40;98508.78;;;13.17;85.36
67517;BME280;68821;59.134;37.894;2023-07-13T08:55:21;98512.91;;;13.24;85.97
67517;BME280;68821;59.134;37.894;2023-07-13T08:57:59;98511.91;;;13.31;85.88
67517;BME280;68821;59.134;37.894;2023-07-13T09:00:37;98525.50;;;13.38;85.90
67517;BME280;68821;59.134;37.894;2023-07-13T09:03:16;98536.66;;;13.40;85.75
67517;BME280;68821;59.134;37.894;2023-07-13T09:05:51;98536.63;;;13.41;85.39
67517;BME280;68821;59.134;37.894;2023-07-13T09:16:19;98546.56;;;13.55;85.24
67517;BME280;68821;59.134;37.894;2023-07-13T09:18:50;98536.25;;;13.55;85.23
67517;BME280;68821;59.134;37.894;2023-07-13T09:21:30;98538.75;;;13.60;85.22
67517;BME280;68821;59.134;37.894;2023-07-13T09:24:01;98536.31;;;13.54;84.92
67517;BME280;68821;59.134;37.894;2023-07-13T09:26:32;98533.63;;;13.57;85.10
67517;BME280;68821;59.134;37.894;2023-07-13T09:29:11;98526.03;;;13.52;85.48
67517;BME280;68821;59.134;37.894;2023-07-13T09:31:48;98520.88;;;13.51;85.22
67517;BME280;68821;59.134;37.894;2023-07-13T09:34:16;98528.44;;;13.58;85.43
67517;BME280;68821;59.134;37.894;2023-07-13T09:36:43;98524.13;;;13.59;85.31
67517;BME280;68821;59.134;37.894;2023-07-13T09:39:15;98516.31;;;13.62;85.21
67517;BME280;68821;59.134;37.894;2023-07-13T09:44:39;98518.59;;;13.74;85.43
67517;BME280;68821;59.134;37.894;2023-07-13T09:47:18;98528.75;;;13.80;85.19
67517;BME280;68821;59.134;37.894;2023-07-13T09:49:45;98536.50;;;13.80;85.17
67517;BME280;68821;59.134;37.894;2023-07-13T09:52:14;98541.69;;;13.79;85.08
67517;BME280;68821;59.134;37.894;2023-07-13T09:54:44;98537.38;;;13.79;85.11
67517;BME280;68821;59.134;37.894;2023-07-13T09:57:15;98554.59;;;13.79;85.38
67517;BME280;68821;59.134;37.894;2023-07-13T09:59:50;98556.44;;;13.74;84.84
67517;BME280;68821;59.134;37.894;2023-07-13T10:02:29;98555.88;;;13.62;85.13
67517;BME280;68821;59.134;37.894;2023-07-13T10:05:11;98556.91;;;13.55;84.92
67517;BME280;68821;59.134;37.894;2023-07-13T10:07:42;98560.66;;;13.43;85.33
67517;BME280;68821;59.134;37.894;2023-07-13T10:10:22;98557.41;;;13.35;85.62
67517;BME280;68821;59.134;37.894;2023-07-13T10:12:49;98568.75;;;13.26;85.37
67517;BME280;68821;59.134;37.894;2023-07-13T10:15:22;98563.72;;;13.20;86.00
67517;BME280;68821;59.134;37.894;2023-07-13T10:17:50;98558.63;;;13.19;85.92
67517;BME280;68821;59.134;37.894;2023-07-13T10:20:18;98562.06;;;13.18;85.91
67517;BME280;68821;59.134;37.894;2023-07-13T10:23:02;98560.41;;;13.15;86.40
67517;BME280;68821;59.134;37.894;2023-07-13T10:25:33;98567.31;;;13.15;86.52
67517;BME280;68821;59.134;37.894;2023-07-13T10:28:35;98559.66;;;13.10;86.74
67517;BME280;68821;59.134;37.894;2023-07-13T10:31:06;98568.31;;;13.07;86.78
67517;BME280;68821;59.134;37.894;2023-07-13T10:33:37;98574.38;;;13.06;86.58
67517;BME280;68821;59.134;37.894;2023-07-13T10:36:20;98576.16;;;13.04;86.92
67517;BME280;68821;59.134;37.894;2023-07-13T10:38:49;98579.69;;;13.00;87.37
67517;BME280;68821;59.134;37.894;2023-07-13T10:41:22;98571.13;;;12.98;87.18
67517;BME280;68821;59.134;37.894;2023-07-13T10:43:52;98569.44;;;12.96;87.13
67517;BME280;68821;59.134;37.894;2023-07-13T10:46:22;98573.75;;;12.95;87.10
67517;BME280;68821;59.134;37.894;2023-07-13T10:48:52;98583.22;;;12.96;87.78
67517;BME280;68821;59.134;37.894;2023-07-13T10:51:21;98584.16;;;12.92;87.26
67517;BME280;68821;59.134;37.894;2023-07-13T10:53:48;98589.22;;;12.97;87.45
67517;BME280;68821;59.134;37.894;2023-07-13T10:56:34;98596.03;;;12.98;87.65
67517;BME280;68821;59.134;37.894;2023-07-13T10:59:13;98587.41;;;13.00;87.68
67517;BME280;68821;59.134;37.894;2023-07-13T11:01:50;98585.69;;;13.01;87.45
67517;BME280;68821;59.134;37.894;2023-07-13T11:04:18;98596.72;;;13.06;87.72
67517;BME280;68821;59.134;37.894;2023-07-13T11:06:48;98585.53;;;13.07;87.66
67517;BME280;68821;59.134;37.894;2023-07-13T11:09:31;98590.63;;;13.10;87.87
67517;BME280;68821;59.134;37.894;2023-07-13T11:12:00;98589.66;;;13.14;87.70
67517;BME280;68821;59.134;37.894;2023-07-13T11:14:38;98599.09;;;13.17;87.83
67517;BME280;68821;59.134;37.894;2023-07-13T11:22:50;98606.59;;;13.27;87.55
67517;BME280;68821;59.134;37.894;2023-07-13T11:27:51;98601.34;;;13.32;87.89
67517;BME280;68821;59.134;37.894;2023-07-13T11:31:11;98601.34;;;13.32;87.20
67517;BME280;68821;59.134;37.894;2023-07-13T11:36:05;98606.25;;;13.43;87.72
67517;BME280;68821;59.134;37.894;2023-07-13T11:41:23;98601.03;;;13.46;87.73
67517;BME280;68821;59.134;37.894;2023-07-13T11:43:53;98614.72;;;13.50;87.13
67517;BME280;68821;59.134;37.894;2023-07-13T11:46:25;98605.25;;;13.50;87.39
67517;BME280;68821;59.134;37.894;2023-07-13T11:48:54;98602.78;;;13.45;87.64
67517;BME280;68821;59.134;37.894;2023-07-13T11:51:25;98605.25;;;13.50;87.33
67517;BME280;68821;59.134;37.894;2023-07-13T11:53:54;98611.25;;;13.51;87.55
67517;BME280;68821;59.134;37.894;2023-07-13T11:56:23;98608.59;;;13.54;87.47
67517;BME280;68821;59.134;37.894;2023-07-13T11:58:53;98608.50;;;13.58;87.16
67517;BME280;68821;59.134;37.894;2023-07-13T12:01:27;98616.22;;;13.58;87.38
67517;BME280;68821;59.134;37.894;2023-07-13T12:04:00;98617.03;;;13.60;87.12
67517;BME280;68821;59.134;37.894;2023-07-13T12:06:32;98623.03;;;13.62;87.44
67517;BME280;68821;59.134;37.894;2023-07-13T12:09:00;98626.44;;;13.63;87.21
67517;BME280;68821;59.134;37.894;2023-07-13T12:11:30;98632.38;;;13.66;86.97
67517;BME280;68821;59.134;37.894;2023-07-13T12:13:56;98643.44;;;13.72;87.03
67517;BME280;68821;59.134;37.894;2023-07-13T12:16:30;98630.50;;;13.73;86.79
67517;BME280;68821;59.134;37.894;2023-07-13T12:19:02;98632.16;;;13.76;86.88
67517;BME280;68821;59.134;37.894;2023-07-13T12:21:36;98638.88;;;13.83;87.04
67517;BME280;68821;59.134;37.894;2023-07-13T12:24:04;98638.72;;;13.89;86.69
67517;BME280;68821;59.134;37.894;2023-07-13T12:26:31;98636.94;;;13.93;86.94
67517;BME280;68821;59.134;37.894;2023-07-13T12:29:05;98644.69;;;13.93;86.64
67517;BME280;68821;59.134;37.894;2023-07-13T12:36:38;98653.25;;;13.95;86.72
67517;BME280;68821;59.134;37.894;2023-07-13T12:39:35;98655.84;;;13.93;86.43
67517;BME280;68821;59.134;37.894;2023-07-13T12:42:33;98655.91;;;13.90;86.74
67517;BME280;68821;59.134;37.894;2023-07-13T12:45:18;98662.03;;;13.86;86.48
67517;BME280;68821;59.134;37.894;2023-07-13T12:47:49;98659.56;;;13.83;86.81
67517;BME280;68821;59.134;37.894;2023-07-13T12:50:18;98663.88;;;13.82;86.63
67517;BME280;68821;59.134;37.894;2023-07-13T12:52:51;98661.19;;;13.85;87.07
67517;BME280;68821;59.134;37.894;2023-07-13T12:55:19;98673.19;;;13.88;86.73
67517;BME280;68821;59.134;37.894;2023-07-13T12:57:57;98668.88;;;13.88;86.83
67517;BME280;68821;59.134;37.894;2023-07-13T13:00:29;98670.50;;;13.93;86.84
67517;BME280;68821;59.134;37.894;2023-07-13T13:03:04;98660.91;;;13.98;87.29
67517;BME280;68821;59.134;37.894;2023-07-13T13:05:32;98662.41;;;14.06;87.01
67517;BME280;68821;59.134;37.894;2023-07-13T13:08:00;98668.13;;;14.19;87.08
67517;BME280;68821;59.134;37.894;2023-07-13T13:10:26;98659.28;;;14.28;86.89
67517;BME280;68821;59.134;37.894;2023-07-13T13:12:52;98666.75;;;14.39;86.38
67517;BME280;68821;59.134;37.894;2023-07-13T13:15:19;98660.44;;;14.49;86.96
67517;BME280;68821;59.134;37.894;2023-07-13T13:17:48;98653.47;;;14.53;86.53
67517;BME280;68821;59.134;37.894;2023-07-13T13:20:19;98667.06;;;14.61;86.30
67517;BME280;68821;59.134;37.894;2023-07-13T13:22:46;98670.38;;;14.66;86.17
67517;BME280;68821;59.134;37.894;2023-07-13T13:25:15;98675.50;;;14.67;85.87
67517;BME280;68821;59.134;37.894;2023-07-13T13:27:43;98679.72;;;14.70;86.25
67517;BME280;68821;59.134;37.894;2023-07-13T13:30:11;98675.47;;;14.69;86.04